createdAt,value
2023-04-26T00:24:38.500Z,2.27
2023-04-26T00:54:40.885Z,2.26
2023-04-26T01:24:43.465Z,2.07
2023-04-26T01:54:45.658Z,2.82
2023-04-26T02:24:51.006Z,2.46
2023-04-26T02:54:48.288Z,2.40
2023-04-26T03:24:50.751Z,2.51
2023-04-26T03:54:53.270Z,2.74
2023-04-26T04:24:55.701Z,9.74
2023-04-26T04:54:58.176Z,11.05
2023-04-26T05:25:01.156Z,4.36
2023-04-26T05:55:03.470Z,5.54
2023-04-26T06:25:06.438Z,3.85
2023-04-26T06:55:09.758Z,3.89
2023-04-26T07:25:12.232Z,2.71
2023-04-26T07:58:35.401Z,2.06
2023-04-26T08:28:35.618Z,1.78
2023-04-26T09:26:26.930Z,2.07
2023-04-26T09:56:29.357Z,1.56
2023-04-26T10:26:31.847Z,1.33
2023-04-26T10:56:34.195Z,1.31
2023-04-26T11:26:36.712Z,1.38
2023-04-26T11:56:41.256Z,1.59
2023-04-26T12:26:44.451Z,2.62
2023-04-26T12:56:44.573Z,1.30
2023-04-26T13:26:47.220Z,1.34
2023-04-26T13:56:49.756Z,1.34
2023-04-26T14:26:56.667Z,1.34
2023-04-26T14:56:58.877Z,1.47
2023-04-26T15:27:01.869Z,1.72
2023-04-26T15:57:01.901Z,1.70
2023-04-26T16:27:04.514Z,1.88
2023-04-26T17:26:29.141Z,1.96
2023-04-26T17:56:32.099Z,3.79
2023-04-26T18:26:39.246Z,3.28
2023-04-26T18:56:35.705Z,5.88
2023-04-26T19:26:38.196Z,5.08
2023-04-26T19:56:40.574Z,4.05
2023-04-26T20:26:43.300Z,2.97
2023-04-26T20:56:43.718Z,4.48
2023-04-26T21:26:46.667Z,7.00
2023-04-26T21:56:49.047Z,4.26
2023-04-26T22:26:51.450Z,4.06
2023-04-26T22:56:53.885Z,2.32
2023-04-26T23:26:56.379Z,2.15
2023-04-26T23:56:58.934Z,2.06
